Main page
METAR-TAF:

METAR-TAF

Airports :

Base Aérea de Armilla

Granada, Spain

latitude: 37-08N, longitude: 003-38-08W, elevation: 700 m

Current weather observation

The report was made 12 hours and 45 minutes ago, at 13:00 UTC
Wind 3 kt from the North/Northwest
Temperature 10°C
Humidity 57%
Pressure 1017 hPa
Visibility 10 km or more
Few clouds at a height of 7000 ft

METAR: LEGA 191300Z 34003KT 9999 FEW070 10/02 Q1017

Time: 02:45 (01:45 UTC)

Forecast

The report was made 11 hours and 45 minutes ago, at 14:00 UTC
Forecast valid from 19 at 15 UTC to 19 at 24 UTC
Wind 5 kt from the South/Southeast
Visibility 10 km or more
Scattered clouds at a height of 4000 ft
Scattered clouds at a height of 5000 ft
Probability 40% :
Temporary
from 19 at 15 UTC to 19 at 24 UTC
Visibility: 4000 m
Broken clouds at a height of 900 ft
rain, mist

TAF: LEGA 191400Z 1915/1924 16005KT 9999 SCT040 SCT050 PROB40 TEMPO 1915/1924 4000 RA BR BKN009

Weather observations and forecasts of more than 4000 airports (METAR and TAF reports).

The available stations are represented by yellow and red dots on the map.

Hover mouse over dot to see the name of the station.

Then click to see weather observations and forecasts.

To change the map : click on the green buttons with a black cross to zoom in, on the green button with a dash to zoom out, or on the green arrows for adjacent maps.


METAR-TAF: